createdAt,value
2019-03-01T00:01:46.243Z,85.48
2019-03-01T00:04:41.254Z,85.03
2019-03-01T00:07:56.195Z,84.95
2019-03-01T00:10:56.081Z,85.13
2019-03-01T00:14:14.314Z,85.33
2019-03-01T00:17:42.308Z,85.43
2019-03-01T00:20:48.248Z,85.43
2019-03-01T00:23:57.445Z,85.32
2019-03-01T00:26:58.390Z,85.37
2019-03-01T00:30:26.367Z,85.54
2019-03-01T00:33:31.866Z,85.78
2019-03-01T00:36:37.030Z,85.31
2019-03-01T00:40:03.658Z,84.99
2019-03-01T00:42:57.899Z,85.17
2019-03-01T00:45:28.507Z,85.20
2019-03-01T00:47:59.121Z,85.37
2019-03-01T00:50:29.658Z,85.43
2019-03-01T00:53:00.306Z,85.60
2019-03-01T00:55:30.926Z,85.60
2019-03-01T00:58:01.431Z,85.50
2019-03-01T01:00:38.074Z,85.76
2019-03-01T01:03:08.637Z,85.78
2019-03-01T01:05:39.234Z,85.62
2019-03-01T01:08:09.879Z,85.60
2019-03-01T01:10:40.505Z,85.25
2019-03-01T01:13:11.055Z,86.27
2019-03-01T01:15:41.640Z,86.28
2019-03-01T01:18:12.208Z,85.34
2019-03-01T01:20:42.719Z,86.01
2019-03-01T01:23:13.330Z,86.40
2019-03-01T01:25:45.581Z,85.88
2019-03-01T01:28:16.051Z,85.64
2019-03-01T01:30:46.562Z,86.46
2019-03-01T01:33:17.010Z,87.21
2019-03-01T01:35:47.443Z,87.61
2019-03-01T01:38:18.509Z,88.03
2019-03-01T01:40:49.026Z,88.28
2019-03-01T01:43:19.654Z,88.05
2019-03-01T01:45:51.736Z,87.62
2019-03-01T01:48:22.398Z,87.44
2019-03-01T01:50:53.039Z,87.25
2019-03-01T01:53:23.634Z,87.30
2019-03-01T01:55:54.213Z,87.22
2019-03-01T01:58:24.761Z,86.80
2019-03-01T02:00:55.252Z,86.77
2019-03-01T02:03:25.833Z,86.30
2019-03-01T02:05:56.682Z,86.13
2019-03-01T02:08:28.028Z,86.04
2019-03-01T02:10:58.715Z,85.96
2019-03-01T02:13:29.133Z,86.14
2019-03-01T02:15:59.654Z,86.12
2019-03-01T02:18:30.140Z,86.25
2019-03-01T02:21:00.691Z,86.22
2019-03-01T02:23:31.249Z,86.38
2019-03-01T02:26:01.637Z,86.65
2019-03-01T02:28:32.029Z,86.85
2019-03-01T02:31:03.791Z,86.57
2019-03-01T02:33:34.270Z,86.57
2019-03-01T02:36:04.795Z,86.51
2019-03-01T02:38:35.211Z,86.51
2019-03-01T02:41:06.442Z,86.46
2019-03-01T02:43:37.050Z,86.31
2019-03-01T02:46:07.559Z,86.29
2019-03-01T02:48:38.003Z,86.30
2019-03-01T02:51:08.675Z,86.34
2019-03-01T02:53:39.098Z,86.30
2019-03-01T02:56:09.537Z,86.04
2019-03-01T02:58:40.016Z,85.69
2019-03-01T03:01:10.806Z,86.76
2019-03-01T03:03:41.229Z,87.11
2019-03-01T03:06:30.558Z,87.43
2019-03-01T03:09:01.107Z,87.61
2019-03-01T03:11:31.652Z,87.79
2019-03-01T03:14:02.253Z,87.80
2019-03-01T03:16:32.767Z,86.89
2019-03-01T03:19:03.324Z,87.60
2019-03-01T03:21:33.825Z,88.56
2019-03-01T03:24:04.588Z,89.28
2019-03-01T03:26:35.031Z,89.57
2019-03-01T03:29:05.571Z,89.93
2019-03-01T03:31:36.042Z,89.73
2019-03-01T03:34:06.855Z,89.05
2019-03-01T03:36:37.252Z,88.39
2019-03-01T03:39:10.527Z,87.40
2019-03-01T03:41:41.276Z,87.77
2019-03-01T03:44:12.412Z,87.82
2019-03-01T03:46:42.941Z,90.29
2019-03-01T03:49:13.496Z,90.55
2019-03-01T03:51:43.909Z,90.49
2019-03-01T03:54:14.271Z,90.27
2019-03-01T03:56:44.781Z,90.26
2019-03-01T03:59:15.438Z,90.15
2019-03-01T04:01:45.996Z,90.29
2019-03-01T04:04:16.556Z,90.31
2019-03-01T04:06:47.297Z,90.16
2019-03-01T04:09:17.909Z,90.00
2019-03-01T04:11:48.331Z,90.55
2019-03-01T04:14:19.496Z,90.40
2019-03-01T04:16:50.041Z,90.12
2019-03-01T04:19:20.494Z,89.92
2019-03-01T04:21:50.979Z,89.53
2019-03-01T04:24:21.520Z,89.48
2019-03-01T04:26:52.027Z,89.48
2019-03-01T04:29:22.638Z,89.93
2019-03-01T04:31:53.139Z,90.05
2019-03-01T04:34:23.492Z,90.12
2019-03-01T04:36:53.917Z,90.55
2019-03-01T04:39:24.453Z,90.98
2019-03-01T04:41:54.806Z,91.30
2019-03-01T04:44:25.201Z,91.72
2019-03-01T04:46:55.751Z,91.94
2019-03-01T04:49:26.350Z,91.94
2019-03-01T04:51:56.876Z,91.87
2019-03-01T04:54:27.366Z,91.67
2019-03-01T04:56:57.853Z,91.48
2019-03-01T04:59:28.349Z,91.86
2019-03-01T05:01:58.736Z,92.49
2019-03-01T05:04:29.152Z,92.70
2019-03-01T05:06:59.660Z,92.37
2019-03-01T05:09:30.501Z,91.70
2019-03-01T05:12:00.993Z,90.72
2019-03-01T05:14:31.399Z,89.89
2019-03-01T05:17:01.931Z,89.47
2019-03-01T05:19:32.251Z,89.34
2019-03-01T05:22:02.717Z,88.83
2019-03-01T05:24:33.385Z,88.44
2019-03-01T05:27:03.902Z,87.98
2019-03-01T05:29:34.387Z,88.22
2019-03-01T05:32:04.972Z,88.18
2019-03-01T05:34:35.381Z,87.88
2019-03-01T05:37:08.090Z,87.87
2019-03-01T05:39:38.637Z,88.07
2019-03-01T05:42:09.162Z,87.82
2019-03-01T05:44:39.707Z,87.93
2019-03-01T05:47:10.343Z,87.91
2019-03-01T05:49:40.951Z,87.92
2019-03-01T05:52:11.669Z,87.85
2019-03-01T05:54:42.173Z,88.09
2019-03-01T05:57:12.516Z,88.17
2019-03-01T05:59:43.367Z,88.03
2019-03-01T06:02:57.126Z,87.51
2019-03-01T06:05:38.844Z,87.33
2019-03-01T06:08:54.204Z,87.24
2019-03-01T06:11:54.506Z,87.18
2019-03-01T06:15:13.192Z,87.17
2019-03-01T06:18:12.173Z,86.99
2019-03-01T06:21:14.202Z,87.20
2019-03-01T06:24:31.527Z,86.99
2019-03-01T06:27:47.949Z,86.60
2019-03-01T06:31:02.446Z,86.98
2019-03-01T06:34:06.608Z,87.08
2019-03-01T06:36:55.682Z,86.89
2019-03-01T06:40:21.257Z,86.15
2019-03-01T06:43:38.085Z,85.29
2019-03-01T06:47:06.050Z,84.47
2019-03-01T06:49:55.529Z,86.34
2019-03-01T06:52:26.470Z,86.91
2019-03-01T06:54:56.949Z,87.45
2019-03-01T06:57:27.693Z,86.90
2019-03-01T06:59:58.257Z,86.18
2019-03-01T07:02:40.892Z,86.45
2019-03-01T07:05:11.836Z,86.25
2019-03-01T07:07:42.566Z,84.85
2019-03-01T07:10:23.875Z,85.66
2019-03-01T07:12:54.671Z,85.61
2019-03-01T07:15:25.136Z,86.74
2019-03-01T07:17:55.617Z,85.91
2019-03-01T07:20:26.139Z,86.40
2019-03-01T07:22:56.714Z,86.20
2019-03-01T07:25:27.240Z,85.86
2019-03-01T07:27:57.802Z,86.19
2019-03-01T07:30:28.366Z,86.86
2019-03-01T07:32:59.859Z,86.59
2019-03-01T07:35:30.425Z,86.00
2019-03-01T07:38:00.901Z,86.10
2019-03-01T07:40:32.179Z,85.94
2019-03-01T07:43:02.793Z,85.39
2019-03-01T07:45:33.341Z,84.35
2019-03-01T07:48:04.008Z,83.62
2019-03-01T07:50:34.716Z,83.71
2019-03-01T07:53:05.130Z,83.70
2019-03-01T07:55:35.752Z,83.77
2019-03-01T07:58:21.534Z,83.43
2019-03-01T08:00:53.509Z,83.04
2019-03-01T08:03:24.563Z,82.78
2019-03-01T08:05:54.952Z,82.82
2019-03-01T08:08:25.517Z,83.92
2019-03-01T08:10:56.430Z,83.05
2019-03-01T08:13:28.076Z,82.71
2019-03-01T08:15:58.981Z,82.46
2019-03-01T08:18:29.431Z,82.21
2019-03-01T08:20:59.982Z,81.84
2019-03-01T08:23:31.813Z,81.28
2019-03-01T08:26:03.587Z,81.36
2019-03-01T08:28:34.183Z,80.13
2019-03-01T08:31:04.797Z,80.98
2019-03-01T08:33:35.439Z,81.43
2019-03-01T08:36:06.949Z,81.66
2019-03-01T08:38:37.769Z,82.18
2019-03-01T08:41:08.349Z,82.76
2019-03-01T08:43:38.946Z,82.47
2019-03-01T08:46:10.521Z,82.55
2019-03-01T08:48:41.184Z,82.46
2019-03-01T08:51:11.785Z,81.60
2019-03-01T08:53:42.461Z,81.29
2019-03-01T08:56:14.678Z,80.22
2019-03-01T08:58:45.068Z,80.63
2019-03-01T09:01:16.241Z,79.59
2019-03-01T09:03:54.566Z,79.19
2019-03-01T09:06:25.175Z,80.75
2019-03-01T09:08:55.686Z,80.51
2019-03-01T09:11:26.358Z,79.96
2019-03-01T09:13:56.867Z,78.94
2019-03-01T09:16:27.364Z,79.01
2019-03-01T09:18:57.963Z,78.41
2019-03-01T09:21:29.049Z,77.83
2019-03-01T09:23:59.636Z,77.38
2019-03-01T09:26:30.197Z,78.57
2019-03-01T09:29:00.771Z,78.61
2019-03-01T09:31:31.425Z,78.63
2019-03-01T09:34:02.082Z,78.57
2019-03-01T09:36:42.743Z,78.99
2019-03-01T09:39:14.445Z,78.75
2019-03-01T09:41:45.704Z,78.50
2019-03-01T09:44:16.365Z,78.34
2019-03-01T09:46:46.871Z,77.11
2019-03-01T09:49:17.833Z,77.25
2019-03-01T09:51:50.041Z,76.24
2019-03-01T09:54:20.618Z,76.54
2019-03-01T09:56:50.988Z,76.24
2019-03-01T09:59:21.592Z,75.99
2019-03-01T10:01:52.366Z,75.50
2019-03-01T10:04:22.779Z,74.53
2019-03-01T10:06:53.341Z,76.78
2019-03-01T10:09:23.822Z,76.48
2019-03-01T10:11:54.554Z,76.10
2019-03-01T10:14:25.053Z,76.55
2019-03-01T10:16:56.880Z,76.78
2019-03-01T10:19:27.529Z,76.37
2019-03-01T10:21:57.931Z,76.37
2019-03-01T10:24:28.601Z,76.37
2019-03-01T10:26:58.991Z,76.68
2019-03-01T10:29:29.417Z,76.29
2019-03-01T10:32:00.003Z,76.70
2019-03-01T10:34:30.665Z,76.37
2019-03-01T10:37:01.352Z,76.67
2019-03-01T10:39:31.775Z,76.54
2019-03-01T10:42:02.267Z,77.70
2019-03-01T10:44:32.611Z,77.91
2019-03-01T10:47:03.019Z,77.24
2019-03-01T10:49:34.422Z,76.52
2019-03-01T10:52:05.134Z,77.43
2019-03-01T10:54:35.661Z,77.42
2019-03-01T10:57:06.110Z,78.01
2019-03-01T10:59:36.506Z,78.67
2019-03-01T11:02:07.147Z,79.95
2019-03-01T11:04:37.646Z,80.24
2019-03-01T11:07:08.129Z,80.74
2019-03-01T11:09:38.643Z,79.67
2019-03-01T11:12:09.494Z,79.61
2019-03-01T11:14:39.855Z,79.45
2019-03-01T11:17:10.408Z,79.61
2019-03-01T11:19:40.778Z,79.48
2019-03-01T11:22:11.325Z,79.34
2019-03-01T11:24:41.760Z,79.28
2019-03-01T11:27:13.130Z,79.27
2019-03-01T11:29:43.812Z,79.61
2019-03-01T11:32:14.212Z,80.05
2019-03-01T11:34:44.693Z,80.30
2019-03-01T11:37:15.286Z,80.43
2019-03-01T11:39:45.802Z,80.45
2019-03-01T11:42:16.427Z,80.37
2019-03-01T11:44:46.897Z,80.53
2019-03-01T11:47:17.562Z,80.46
2019-03-01T11:49:48.070Z,80.64
2019-03-01T11:52:18.534Z,81.01
2019-03-01T11:54:49.518Z,81.28
2019-03-01T11:57:20.006Z,81.25
2019-03-01T11:59:50.489Z,81.08
2019-03-01T12:02:21.218Z,81.31
2019-03-01T12:04:51.593Z,81.57
2019-03-01T12:07:22.021Z,81.38
2019-03-01T12:09:52.637Z,80.82
2019-03-01T12:12:23.796Z,81.47
2019-03-01T12:14:54.225Z,81.44
2019-03-01T12:17:24.761Z,81.80
2019-03-01T12:19:55.157Z,81.97
2019-03-01T12:22:25.632Z,82.18
2019-03-01T12:24:56.098Z,82.42
2019-03-01T12:27:26.556Z,82.72
2019-03-01T12:29:57.035Z,82.39
2019-03-01T12:32:27.463Z,81.81
2019-03-01T12:34:57.915Z,81.50
2019-03-01T12:37:28.425Z,80.80
2019-03-01T12:39:58.935Z,81.04
2019-03-01T12:42:29.415Z,81.21
2019-03-01T12:44:59.808Z,81.67
2019-03-01T12:47:30.436Z,82.29
2019-03-01T12:50:01.146Z,82.57
2019-03-01T12:52:31.762Z,83.03
2019-03-01T12:55:04.778Z,83.19
2019-03-01T12:57:35.375Z,83.32
2019-03-01T13:00:09.667Z,83.52
2019-03-01T13:02:40.519Z,83.40
2019-03-01T13:05:12.251Z,83.32
2019-03-01T13:07:42.900Z,83.22
2019-03-01T13:10:17.833Z,83.46
2019-03-01T13:12:48.526Z,83.82
2019-03-01T13:15:19.600Z,84.00
2019-03-01T13:17:50.588Z,84.24
2019-03-01T13:20:21.235Z,84.62
2019-03-01T13:22:51.841Z,84.63
2019-03-01T13:25:25.818Z,84.62
2019-03-01T13:27:54.772Z,84.58
2019-03-01T13:30:25.479Z,84.54
2019-03-01T13:33:02.424Z,84.71
2019-03-01T13:35:31.687Z,84.47
2019-03-01T13:38:03.899Z,84.34
2019-03-01T13:40:34.713Z,84.29
2019-03-01T13:43:05.481Z,84.34
2019-03-01T13:45:36.212Z,84.37
2019-03-01T13:48:06.847Z,84.34
2019-03-01T13:50:41.560Z,84.19
2019-03-01T13:53:11.129Z,83.59
2019-03-01T13:55:41.598Z,83.54
2019-03-01T13:58:12.025Z,83.72
2019-03-01T14:00:45.627Z,83.73
2019-03-01T14:03:14.899Z,83.74
2019-03-01T14:05:45.481Z,83.40
2019-03-01T14:08:15.949Z,83.24
2019-03-01T14:10:46.485Z,83.48
2019-03-01T14:13:17.079Z,83.39
2019-03-01T14:15:48.151Z,83.43
2019-03-01T14:18:18.746Z,82.62
2019-03-01T14:20:49.349Z,81.87
2019-03-01T14:23:21.213Z,81.77
2019-03-01T14:25:55.483Z,81.24
2019-03-01T14:28:25.941Z,80.80
2019-03-01T14:30:57.848Z,80.46
2019-03-01T14:33:29.957Z,79.98
2019-03-01T14:36:02.699Z,80.37
2019-03-01T14:38:33.672Z,79.42
2019-03-01T14:41:04.326Z,80.71
2019-03-01T14:43:35.439Z,79.98
2019-03-01T14:46:08.858Z,80.10
2019-03-01T14:48:39.481Z,80.52
2019-03-01T14:51:11.843Z,80.45
2019-03-01T14:53:42.556Z,81.53
2019-03-01T14:56:25.202Z,81.00
2019-03-01T14:59:24.423Z,81.71
2019-03-01T15:02:16.983Z,81.63
2019-03-01T15:04:47.631Z,81.51
2019-03-01T15:07:18.251Z,80.81
2019-03-01T15:09:49.455Z,80.94
2019-03-01T15:12:29.570Z,81.26
2019-03-01T15:15:00.399Z,81.27
2019-03-01T15:17:30.981Z,82.05
2019-03-01T15:20:03.685Z,82.08
2019-03-01T15:22:45.592Z,82.31
2019-03-01T15:25:18.221Z,82.17
2019-03-01T15:27:54.740Z,81.92
2019-03-01T15:30:29.473Z,81.94
2019-03-01T15:33:00.098Z,82.08
2019-03-01T15:35:30.824Z,81.98
2019-03-01T15:38:02.690Z,82.28
2019-03-01T15:40:36.863Z,82.02
2019-03-01T15:43:09.104Z,81.69
2019-03-01T15:45:45.136Z,82.13
2019-03-01T15:48:15.897Z,82.07
2019-03-01T15:50:46.653Z,82.26
2019-03-01T15:53:17.282Z,81.88
2019-03-01T15:55:50.446Z,81.93
2019-03-01T15:58:24.249Z,82.48
2019-03-01T16:00:55.986Z,82.21
2019-03-01T16:03:27.449Z,83.20
2019-03-01T16:05:58.067Z,83.30
2019-03-01T16:08:28.680Z,83.98
2019-03-01T16:11:01.434Z,84.44
2019-03-01T16:13:37.482Z,84.89
2019-03-01T16:18:43.456Z,85.98
2019-03-01T16:21:15.674Z,86.41
2019-03-01T16:23:46.280Z,86.41
2019-03-01T16:26:29.422Z,86.51
2019-03-01T16:28:56.131Z,86.80
2019-03-01T16:31:32.068Z,86.97
2019-03-01T16:34:05.282Z,86.87
2019-03-01T16:36:41.159Z,86.90
2019-03-01T16:39:20.523Z,86.53
2019-03-01T16:41:52.003Z,86.51
2019-03-01T16:44:23.981Z,86.20
2019-03-01T16:46:54.629Z,86.02
2019-03-01T16:49:28.941Z,86.34
2019-03-01T16:52:00.791Z,86.06
2019-03-01T16:54:31.361Z,86.54
2019-03-01T16:57:01.972Z,86.87
2019-03-01T16:59:33.646Z,87.21
2019-03-01T17:02:06.609Z,87.56
2019-03-01T17:04:40.592Z,86.47
2019-03-01T17:07:18.105Z,84.62
2019-03-01T17:09:51.342Z,83.07
2019-03-01T17:12:26.152Z,82.66
2019-03-01T17:15:01.241Z,82.01
2019-03-01T17:17:36.843Z,82.19
2019-03-01T17:20:12.867Z,82.12
2019-03-01T17:22:50.194Z,81.56
2019-03-01T17:25:26.751Z,81.12
2019-03-01T17:28:04.081Z,80.98
2019-03-01T17:30:34.801Z,80.31
2019-03-01T17:33:05.384Z,80.05
2019-03-01T17:35:41.854Z,79.89
2019-03-01T17:38:13.655Z,80.09
2019-03-01T17:40:45.161Z,79.64
2019-03-01T17:43:18.745Z,79.49
2019-03-01T17:45:54.481Z,79.45
2019-03-01T17:48:25.216Z,79.31
2019-03-01T17:51:00.443Z,79.55
2019-03-01T17:53:32.528Z,79.82
2019-03-01T17:56:12.231Z,79.74
2019-03-01T17:58:42.792Z,79.84
2019-03-01T18:01:16.742Z,79.99
2019-03-01T18:03:49.870Z,79.85
2019-03-01T18:06:40.240Z,79.49
2019-03-01T18:09:13.449Z,80.19
2019-03-01T18:11:48.585Z,80.10
2019-03-01T18:14:20.301Z,80.19
2019-03-01T18:16:50.918Z,80.23
2019-03-01T18:19:27.795Z,80.18
2019-03-01T18:21:59.911Z,80.28
2019-03-01T18:24:34.225Z,80.62
2019-03-01T18:27:17.858Z,81.81
2019-03-01T18:29:49.783Z,81.97
2019-03-01T18:32:26.321Z,82.04
2019-03-01T18:35:02.583Z,82.05
2019-03-01T18:37:39.431Z,82.11
2019-03-01T18:40:16.549Z,81.98
2019-03-01T18:42:51.932Z,81.99
2019-03-01T18:45:27.388Z,81.60
2019-03-01T18:48:04.986Z,81.56
2019-03-01T18:50:43.267Z,81.69
2019-03-01T18:53:20.007Z,81.74
2019-03-01T18:55:58.544Z,81.83
2019-03-01T18:58:31.425Z,81.92
2019-03-01T19:01:07.721Z,82.23
2019-03-01T19:03:44.434Z,82.32
2019-03-01T19:06:19.597Z,82.46
2019-03-01T19:08:52.268Z,82.62
2019-03-01T19:11:23.290Z,82.73
2019-03-01T19:13:55.265Z,82.80
2019-03-01T19:16:28.588Z,83.15
2019-03-01T19:19:04.845Z,83.27
2019-03-01T19:21:39.001Z,83.60
2019-03-01T19:24:13.925Z,83.60
2019-03-01T19:26:54.544Z,83.79
2019-03-01T19:29:27.708Z,83.88
2019-03-01T19:32:05.887Z,84.05
2019-03-01T19:34:38.861Z,83.97
2019-03-01T19:37:13.347Z,83.82
2019-03-01T19:39:41.922Z,83.91
2019-03-01T19:42:18.621Z,83.99
2019-03-01T19:45:04.674Z,84.15
2019-03-01T19:47:39.317Z,84.40
2019-03-01T19:50:21.838Z,84.63
2019-03-01T19:52:57.856Z,84.68
2019-03-01T19:55:33.736Z,84.77
2019-03-01T19:58:08.697Z,85.14
2019-03-01T20:00:42.231Z,85.39
2019-03-01T20:03:13.842Z,85.64
2019-03-01T20:05:47.962Z,85.88
2019-03-01T20:08:18.856Z,86.04
2019-03-01T20:10:51.028Z,86.32
2019-03-01T20:13:27.216Z,86.51
2019-03-01T20:15:59.265Z,85.45
2019-03-01T20:18:35.776Z,85.79
2019-03-01T20:21:10.557Z,87.04
2019-03-01T20:23:46.132Z,87.14
2019-03-01T20:26:19.511Z,87.61
2019-03-01T20:28:52.451Z,87.59
2019-03-01T20:31:27.311Z,87.55
2019-03-01T20:34:01.943Z,87.19
2019-03-01T20:36:44.460Z,86.81
2019-03-01T20:39:25.614Z,87.82
2019-03-01T20:41:58.447Z,88.35
2019-03-01T20:44:36.336Z,88.81
2019-03-01T20:47:10.366Z,88.98
2019-03-01T20:49:54.979Z,88.96
2019-03-01T20:52:27.866Z,88.99
2019-03-01T20:55:01.628Z,88.83
2019-03-01T20:57:33.756Z,88.69
2019-03-01T21:00:08.203Z,88.68
2019-03-01T21:02:42.179Z,88.89
2019-03-01T21:05:18.071Z,89.00
2019-03-01T21:07:53.758Z,88.96
2019-03-01T21:10:23.806Z,88.86
2019-03-01T21:13:12.536Z,88.73
2019-03-01T21:15:41.875Z,88.67
2019-03-01T21:18:13.658Z,88.74
2019-03-01T21:20:45.524Z,88.93
2019-03-01T21:23:18.235Z,88.99
2019-03-01T21:25:51.296Z,88.45
2019-03-01T21:28:25.391Z,87.82
2019-03-01T21:30:59.946Z,87.39
2019-03-01T21:33:31.052Z,87.99
2019-03-01T21:36:01.612Z,88.53
2019-03-01T21:38:32.157Z,89.03
2019-03-01T21:41:06.327Z,89.38
2019-03-01T21:43:38.443Z,89.75
2019-03-01T21:46:09.121Z,90.20
2019-03-01T21:48:42.643Z,90.70
2019-03-01T21:51:19.883Z,91.26
2019-03-01T21:53:50.595Z,91.59
2019-03-01T21:56:24.248Z,91.91
2019-03-01T21:58:54.811Z,91.92
2019-03-01T22:01:25.292Z,91.93
2019-03-01T22:03:55.929Z,92.15
2019-03-01T22:06:26.435Z,92.31
2019-03-01T22:08:57.230Z,92.47
2019-03-01T22:11:27.793Z,92.46
2019-03-01T22:13:58.770Z,92.37
2019-03-01T22:16:32.711Z,92.23
2019-03-01T22:19:01.791Z,92.04
2019-03-01T22:21:32.361Z,91.44
2019-03-01T22:24:03.007Z,90.88
2019-03-01T22:26:35.230Z,91.13
2019-03-01T22:29:08.878Z,91.55
2019-03-01T22:31:39.655Z,91.78
2019-03-01T22:34:10.336Z,91.91
2019-03-01T22:36:40.771Z,91.92
2019-03-01T22:39:13.651Z,91.97
2019-03-01T22:41:44.525Z,91.94
2019-03-01T22:44:15.287Z,91.91
2019-03-01T22:46:45.915Z,91.80
2019-03-01T22:49:16.595Z,91.64
2019-03-01T22:52:05.127Z,91.56
2019-03-01T22:54:50.617Z,91.35
2019-03-01T22:57:45.116Z,91.12
2019-03-01T23:01:20.596Z,90.93
2019-03-01T23:04:10.763Z,90.89
2019-03-01T23:06:57.216Z,90.79
2019-03-01T23:09:46.166Z,90.73
2019-03-01T23:12:31.163Z,90.64
2019-03-01T23:15:19.317Z,90.55
2019-03-01T23:18:06.500Z,90.54
2019-03-01T23:20:53.001Z,90.61
2019-03-01T23:23:24.849Z,90.50
2019-03-01T23:25:55.678Z,90.56
2019-03-01T23:28:27.727Z,90.68
2019-03-01T23:31:00.521Z,90.80
2019-03-01T23:33:33.421Z,90.73
2019-03-01T23:36:05.122Z,90.89
2019-03-01T23:38:37.443Z,90.93
2019-03-01T23:41:11.413Z,90.96
2019-03-01T23:43:43.626Z,90.94
2019-03-01T23:46:15.438Z,90.87
2019-03-01T23:48:48.915Z,90.79
2019-03-01T23:51:21.295Z,90.60
2019-03-01T23:53:53.501Z,90.48
2019-03-01T23:56:26.806Z,90.38
2019-03-01T23:58:59.469Z,90.19
